createdAt,value
2023-01-08T00:01:15.100Z,0
2023-01-08T00:02:31.296Z,0
2023-01-08T00:03:47.479Z,0
2023-01-08T00:05:03.349Z,0
2023-01-08T00:06:19.856Z,0
2023-01-08T00:07:35.731Z,0
2023-01-08T00:08:52.235Z,0
2023-01-08T00:10:08.109Z,0
2023-01-08T00:11:24.611Z,0
2023-01-08T00:12:40.795Z,0
2023-01-08T00:13:57.002Z,0
2023-01-08T00:15:12.195Z,0
2023-01-08T00:16:28.393Z,0
2023-01-08T00:17:44.583Z,0
2023-01-08T00:19:00.462Z,0
2023-01-08T00:20:16.952Z,0
2023-01-08T00:21:33.140Z,0
2023-01-08T00:22:49.023Z,0
2023-01-08T00:24:05.520Z,0
2023-01-08T00:25:21.403Z,0
2023-01-08T00:26:37.896Z,0
2023-01-08T00:27:54.086Z,0
2023-01-08T00:29:10.287Z,0
2023-01-08T00:30:26.471Z,0
2023-01-08T00:31:41.675Z,0
2023-01-08T00:32:57.868Z,0
2023-01-08T00:34:13.743Z,0
2023-01-08T00:35:29.923Z,0
2023-01-08T00:36:46.109Z,0
2023-01-08T00:38:02.614Z,0
2023-01-08T00:39:18.804Z,0
2023-01-08T00:40:34.988Z,0
2023-01-08T00:41:50.872Z,0
2023-01-08T00:43:07.378Z,0
2023-01-08T00:44:23.554Z,0
2023-01-08T00:45:39.436Z,0
2023-01-08T00:46:55.619Z,0
2023-01-08T00:48:10.818Z,0
2023-01-08T00:49:27.339Z,0
2023-01-08T00:50:43.528Z,0
2023-01-08T00:51:59.401Z,0
2023-01-08T00:53:15.903Z,0
2023-01-08T00:54:32.100Z,0
2023-01-08T00:55:46.981Z,0
2023-01-08T00:57:03.172Z,0
2023-01-08T00:58:19.366Z,0
2023-01-08T00:59:35.866Z,0
2023-01-08T01:00:52.050Z,0
2023-01-08T01:02:08.246Z,0
2023-01-08T01:03:24.447Z,0
2023-01-08T01:04:40.295Z,0
2023-01-08T01:05:56.807Z,0
2023-01-08T01:07:13.008Z,0
2023-01-08T01:08:29.190Z,0
2023-01-08T01:09:45.382Z,0
2023-01-08T01:11:01.575Z,0
2023-01-08T01:12:16.785Z,0
2023-01-08T01:13:32.000Z,0
2023-01-08T01:14:49.162Z,0
2023-01-08T01:16:05.346Z,0
2023-01-08T01:17:21.531Z,0
2023-01-08T01:18:37.715Z,0
2023-01-08T01:19:53.587Z,0
2023-01-08T01:21:10.098Z,0
2023-01-08T01:22:26.292Z,0
2023-01-08T01:23:42.475Z,0
2023-01-08T01:24:58.660Z,0
2023-01-08T01:26:14.532Z,0
2023-01-08T01:27:30.715Z,0
2023-01-08T01:28:46.256Z,0
2023-01-08T01:30:02.450Z,0
2023-01-08T01:31:18.638Z,0
2023-01-08T01:32:34.830Z,0
2023-01-08T01:33:51.010Z,0
2023-01-08T01:35:06.859Z,0
2023-01-08T01:36:23.381Z,0
2023-01-08T01:37:39.252Z,0
2023-01-08T01:38:55.761Z,0
2023-01-08T01:40:11.963Z,0
2023-01-08T01:41:28.139Z,0
2023-01-08T01:42:44.000Z,0
2023-01-08T01:44:00.523Z,0
2023-01-08T01:45:15.398Z,0
2023-01-08T01:46:31.918Z,0
2023-01-08T01:47:48.112Z,0
2023-01-08T01:49:04.298Z,0
2023-01-08T01:51:36.666Z,0
2023-01-08T01:52:52.535Z,0
2023-01-08T01:54:09.043Z,0
2023-01-08T01:55:25.236Z,0
2023-01-08T01:56:41.426Z,0
2023-01-08T01:57:57.625Z,0
2023-01-08T01:59:13.813Z,0
2023-01-08T02:00:29.995Z,0
2023-01-08T02:01:44.859Z,0
2023-01-08T02:03:01.392Z,0
2023-01-08T02:04:17.569Z,0
2023-01-08T02:05:33.767Z,0
2023-01-08T02:06:49.964Z,0
2023-01-08T02:08:06.149Z,0
2023-01-08T02:09:22.334Z,0
2023-01-08T02:10:38.519Z,0
2023-01-08T02:11:54.718Z,0
2023-01-08T02:13:10.562Z,0
2023-01-08T02:14:27.092Z,0
2023-01-08T02:15:43.285Z,0
2023-01-08T02:16:59.139Z,0
2023-01-08T02:18:14.685Z,0
2023-01-08T02:19:30.871Z,0
2023-01-08T02:20:46.711Z,0
2023-01-08T02:22:03.234Z,0
2023-01-08T02:23:19.084Z,0
2023-01-08T02:24:35.608Z,0
2023-01-08T02:25:51.459Z,0
2023-01-08T02:27:07.980Z,0
2023-01-08T02:28:23.833Z,0
2023-01-08T02:29:40.025Z,0
2023-01-08T02:30:56.555Z,0
2023-01-08T02:32:12.743Z,0
2023-01-08T02:33:28.580Z,0
2023-01-08T02:34:44.120Z,0
2023-01-08T02:35:59.972Z,0
2023-01-08T02:37:16.148Z,0
2023-01-08T02:38:32.345Z,0
2023-01-08T02:39:48.869Z,0
2023-01-08T02:41:05.056Z,0
2023-01-08T02:42:21.252Z,0
2023-01-08T02:43:37.097Z,0
2023-01-08T02:44:53.625Z,0
2023-01-08T02:46:09.810Z,0
2023-01-08T02:47:25.996Z,0
2023-01-08T02:48:41.834Z,0
2023-01-08T02:49:58.380Z,0
2023-01-08T02:51:13.584Z,0
2023-01-08T02:52:29.760Z,0
2023-01-08T02:53:45.945Z,0
2023-01-08T02:55:02.151Z,0
2023-01-08T02:56:18.320Z,0
2023-01-08T02:57:34.524Z,0
2023-01-08T02:58:50.359Z,0
2023-01-08T03:00:06.891Z,0
2023-01-08T03:01:23.075Z,0
2023-01-08T03:02:39.275Z,0
2023-01-08T03:03:55.446Z,0
2023-01-08T03:05:11.648Z,0
2023-01-08T03:06:27.485Z,0
2023-01-08T03:07:43.031Z,0
2023-01-08T03:08:58.858Z,0
2023-01-08T03:10:15.045Z,0
2023-01-08T03:11:31.249Z,0
2023-01-08T03:12:47.780Z,0
2023-01-08T03:14:03.959Z,0
2023-01-08T03:15:20.153Z,0
2023-01-08T03:16:36.343Z,0
2023-01-08T03:17:52.520Z,0
2023-01-08T03:19:08.710Z,0
2023-01-08T03:20:24.899Z,0
2023-01-08T03:21:40.745Z,0
2023-01-08T03:22:57.281Z,0
2023-01-08T03:24:12.485Z,0
2023-01-08T03:25:28.674Z,0
2023-01-08T03:26:44.858Z,0
2023-01-08T03:28:01.054Z,0
2023-01-08T03:29:16.884Z,0
2023-01-08T03:30:33.412Z,0
2023-01-08T03:31:49.247Z,0
2023-01-08T03:33:05.440Z,0
2023-01-08T03:34:21.978Z,0
2023-01-08T03:35:38.176Z,0
2023-01-08T03:36:54.003Z,0
2023-01-08T03:38:10.545Z,0
2023-01-08T03:39:26.741Z,0
2023-01-08T03:40:41.574Z,0
2023-01-08T03:41:58.123Z,0
2023-01-08T03:43:14.304Z,0
2023-01-08T03:44:30.492Z,0
2023-01-08T03:45:46.693Z,0
2023-01-08T03:47:02.881Z,0
2023-01-08T03:48:19.056Z,0
2023-01-08T03:49:35.247Z,0
2023-01-08T03:50:51.440Z,0
2023-01-08T03:52:07.622Z,0
2023-01-08T03:53:23.816Z,0
2023-01-08T03:54:40.005Z,0
2023-01-08T03:55:56.187Z,0
2023-01-08T03:57:11.393Z,0
2023-01-08T03:58:27.579Z,0
2023-01-08T03:59:43.771Z,0
2023-01-08T04:00:59.954Z,0
2023-01-08T04:02:16.136Z,0
2023-01-08T04:03:32.317Z,0
2023-01-08T04:04:48.157Z,0
2023-01-08T04:06:04.708Z,0
2023-01-08T04:07:20.532Z,0
2023-01-08T04:08:37.076Z,0
2023-01-08T04:09:53.265Z,0
2023-01-08T04:11:09.083Z,0
2023-01-08T04:12:25.628Z,0
2023-01-08T04:13:40.474Z,0
2023-01-08T04:14:56.655Z,0
2023-01-08T04:16:13.217Z,0
2023-01-08T04:17:29.035Z,0
2023-01-08T04:18:45.598Z,0
2023-01-08T04:20:01.415Z,0
2023-01-08T04:21:17.956Z,0
2023-01-08T04:22:34.158Z,0
2023-01-08T04:23:50.338Z,0
2023-01-08T04:25:06.520Z,0
2023-01-08T04:26:22.720Z,0
2023-01-08T04:27:38.897Z,0
2023-01-08T04:28:54.711Z,0
2023-01-08T04:30:09.919Z,0
2023-01-08T04:31:26.109Z,0
2023-01-08T04:32:42.669Z,0
2023-01-08T04:33:58.858Z,0
2023-01-08T04:35:15.034Z,0
2023-01-08T04:36:30.865Z,0
2023-01-08T04:37:47.056Z,0
2023-01-08T04:39:03.597Z,0
2023-01-08T04:40:19.411Z,0
2023-01-08T04:41:35.968Z,0
2023-01-08T04:42:52.164Z,0
2023-01-08T04:44:08.362Z,0
2023-01-08T04:45:24.532Z,0
2023-01-08T04:46:39.373Z,0
2023-01-08T04:47:55.929Z,0
2023-01-08T04:49:11.756Z,0
2023-01-08T04:50:28.306Z,0
2023-01-08T04:51:44.491Z,0
2023-01-08T04:53:00.301Z,0
2023-01-08T04:54:16.864Z,0
2023-01-08T04:55:32.676Z,0
2023-01-08T04:56:49.000Z,0
2023-01-08T04:58:05.426Z,0
2023-01-08T04:59:21.250Z,0
2023-01-08T05:00:37.442Z,0
2023-01-08T05:01:53.611Z,0
2023-01-08T05:03:09.197Z,0
2023-01-08T05:04:25.393Z,0
2023-01-08T05:05:41.562Z,0
2023-01-08T05:06:57.758Z,0
2023-01-08T05:08:13.567Z,0
2023-01-08T05:09:30.133Z,0
2023-01-08T05:10:45.348Z,0
2023-01-08T05:12:01.527Z,0
2023-01-08T05:13:17.721Z,0
2023-01-08T05:14:33.901Z,0
2023-01-08T05:15:50.099Z,0
2023-01-08T05:17:06.282Z,0
2023-01-08T05:18:22.461Z,0
2023-01-08T05:19:38.645Z,0
2023-01-08T05:20:54.840Z,0
2023-01-08T05:22:11.023Z,0
2023-01-08T05:23:27.211Z,0
2023-01-08T05:24:43.028Z,0
2023-01-08T05:25:59.593Z,0
2023-01-08T05:27:14.799Z,0
2023-01-08T05:28:30.982Z,0
2023-01-08T05:29:47.167Z,0
2023-01-08T05:31:02.973Z,0
2023-01-08T05:32:19.549Z,0
2023-01-08T05:33:35.739Z,0
2023-01-08T05:34:51.546Z,0
2023-01-08T05:36:08.101Z,0
2023-01-08T05:37:24.302Z,0
2023-01-08T05:38:40.110Z,0
2023-01-08T05:39:56.280Z,0
2023-01-08T05:41:12.866Z,0
2023-01-08T05:42:29.035Z,0
2023-01-08T05:43:44.238Z,0
2023-01-08T05:45:00.431Z,0
2023-01-08T05:46:16.613Z,0
2023-01-08T05:47:32.813Z,0
2023-01-08T05:48:49.000Z,0
2023-01-08T05:50:05.000Z,0
2023-01-08T05:51:21.367Z,0
2023-01-08T05:52:37.175Z,0
2023-01-08T05:53:53.371Z,0
2023-01-08T05:55:09.934Z,0
2023-01-08T05:56:26.126Z,0
2023-01-08T05:57:42.306Z,0
2023-01-08T05:58:58.491Z,0
2023-01-08T06:00:13.699Z,0
2023-01-08T06:01:29.507Z,0
2023-01-08T06:02:45.694Z,0
2023-01-08T06:04:02.272Z,0
2023-01-08T06:05:18.060Z,0
2023-01-08T06:06:34.647Z,0
2023-01-08T06:07:50.815Z,0
2023-01-08T06:09:07.009Z,0
2023-01-08T06:10:23.209Z,0
2023-01-08T06:11:39.382Z,0
2023-01-08T06:12:55.583Z,0
2023-01-08T06:14:11.772Z,0
2023-01-08T06:15:27.955Z,0
2023-01-08T06:16:43.145Z,0
2023-01-08T06:17:59.331Z,0
2023-01-08T06:19:15.521Z,0
2023-01-08T06:20:31.317Z,0
2023-01-08T06:21:47.893Z,0
2023-01-08T06:23:04.093Z,0
2023-01-08T06:24:19.891Z,0
2023-01-08T06:25:36.473Z,0
2023-01-08T06:26:52.655Z,0
2023-01-08T06:28:08.458Z,0
2023-01-08T06:29:24.630Z,0
2023-01-08T06:30:40.830Z,0
2023-01-08T06:31:57.393Z,0
2023-01-08T06:33:12.212Z,0
2023-01-08T06:34:28.794Z,0
2023-01-08T06:35:44.984Z,0
2023-01-08T06:37:01.173Z,0
2023-01-08T06:38:17.362Z,0
2023-01-08T06:39:33.154Z,0
2023-01-08T06:40:49.736Z,0
2023-01-08T06:42:05.926Z,0
2023-01-08T06:43:21.708Z,0
2023-01-08T06:44:38.297Z,0
2023-01-08T06:45:54.482Z,0
2023-01-08T06:47:10.260Z,0
2023-01-08T06:48:26.857Z,0
2023-01-08T06:49:42.066Z,0
2023-01-08T06:50:58.244Z,0
2023-01-08T06:52:14.426Z,0
2023-01-08T06:53:30.613Z,0
2023-01-08T06:54:46.412Z,0
2023-01-08T06:56:02.588Z,0
2023-01-08T06:57:19.179Z,0
2023-01-08T06:58:35.361Z,0
2023-01-08T06:59:51.564Z,0
2023-01-08T07:01:07.746Z,0
2023-01-08T07:02:23.532Z,0
2023-01-08T07:03:40.115Z,0
2023-01-08T07:04:56.297Z,0
2023-01-08T07:06:11.504Z,0
2023-01-08T07:07:27.707Z,0
2023-01-08T07:08:43.477Z,0
2023-01-08T07:09:59.665Z,0
2023-01-08T07:11:16.270Z,0
2023-01-08T07:12:32.452Z,0
2023-01-08T07:13:48.638Z,0
2023-01-08T07:15:04.823Z,0
2023-01-08T07:16:21.010Z,0
2023-01-08T07:17:37.201Z,0
2023-01-08T07:18:53.388Z,0
2023-01-08T07:20:09.572Z,0
2023-01-08T07:21:25.356Z,0
2023-01-08T07:22:40.957Z,0
2023-01-08T07:23:57.148Z,0
2023-01-08T07:25:12.940Z,0
2023-01-08T07:26:29.126Z,0
2023-01-08T07:27:45.720Z,0
2023-01-08T07:29:01.911Z,0
2023-01-08T07:30:17.692Z,0
2023-01-08T07:31:34.268Z,0
2023-01-08T07:32:50.058Z,0
2023-01-08T07:34:06.250Z,0
2023-01-08T07:35:22.831Z,0
2023-01-08T07:36:39.021Z,5
2023-01-08T07:37:55.219Z,5
2023-01-08T07:39:10.423Z,5
2023-01-08T07:40:26.202Z,5
2023-01-08T07:41:42.789Z,5
2023-01-08T07:42:58.984Z,5
2023-01-08T07:44:14.752Z,5
2023-01-08T07:45:31.347Z,5
2023-01-08T07:46:47.133Z,5
2023-01-08T07:48:03.735Z,5
2023-01-08T07:49:19.927Z,5
2023-01-08T07:50:36.111Z,5
2023-01-08T07:51:52.300Z,5
2023-01-08T07:53:08.490Z,5
2023-01-08T07:54:24.262Z,5
2023-01-08T07:55:39.455Z,5
2023-01-08T07:56:56.058Z,5
2023-01-08T07:58:12.256Z,5
2023-01-08T07:59:28.432Z,11
2023-01-08T08:00:44.626Z,11
2023-01-08T08:02:00.806Z,11
2023-01-08T08:03:16.584Z,11
2023-01-08T08:04:33.187Z,11
2023-01-08T08:05:49.375Z,11
2023-01-08T08:07:05.557Z,11
2023-01-08T08:08:21.743Z,11
2023-01-08T08:09:37.930Z,11
2023-01-08T08:10:53.715Z,11
2023-01-08T08:12:08.908Z,11
2023-01-08T08:13:25.513Z,11
2023-01-08T08:14:41.691Z,11
2023-01-08T08:15:57.476Z,5
2023-01-08T08:17:14.077Z,5
2023-01-08T08:18:29.841Z,5
2023-01-08T08:19:46.440Z,5
2023-01-08T08:21:02.635Z,5
2023-01-08T08:22:18.825Z,5
2023-01-08T08:23:34.597Z,5
2023-01-08T08:24:50.778Z,5
2023-01-08T08:26:07.381Z,5
2023-01-08T08:27:23.563Z,5
2023-01-08T08:28:38.784Z,5
2023-01-08T08:29:54.971Z,11
2023-01-08T08:31:10.744Z,11
2023-01-08T08:32:27.329Z,11
2023-01-08T08:33:43.116Z,11
2023-01-08T08:34:59.719Z,11
2023-01-08T08:36:15.911Z,11
2023-01-08T08:37:32.097Z,16
2023-01-08T08:38:48.272Z,16
2023-01-08T08:40:04.052Z,16
2023-01-08T08:41:20.650Z,22
2023-01-08T08:42:36.840Z,22
2023-01-08T08:43:53.022Z,22
2023-01-08T08:45:07.796Z,22
2023-01-08T08:46:23.983Z,22
2023-01-08T08:47:40.604Z,22
2023-01-08T08:48:56.784Z,22
2023-01-08T08:50:12.977Z,28
2023-01-08T08:51:29.174Z,28
2023-01-08T08:52:44.922Z,28
2023-01-08T08:54:01.541Z,22
2023-01-08T08:55:17.723Z,22
2023-01-08T08:56:33.911Z,16
2023-01-08T08:57:50.112Z,16
2023-01-08T08:59:06.283Z,11
2023-01-08T09:00:22.484Z,11
2023-01-08T09:01:37.261Z,11
2023-01-08T09:02:53.440Z,11
2023-01-08T09:04:09.639Z,11
2023-01-08T09:05:26.237Z,11
2023-01-08T09:06:42.440Z,11
2023-01-08T09:07:58.615Z,16
2023-01-08T09:09:14.806Z,16
2023-01-08T09:10:30.996Z,22
2023-01-08T09:11:46.763Z,22
2023-01-08T09:13:03.364Z,22
2023-01-08T09:14:19.555Z,22
2023-01-08T09:15:35.319Z,22
2023-01-08T09:16:51.936Z,33
2023-01-08T09:18:07.138Z,39
2023-01-08T09:19:22.902Z,33
2023-01-08T09:20:39.503Z,33
2023-01-08T09:21:55.707Z,33
2023-01-08T09:23:11.444Z,33
2023-01-08T09:24:28.072Z,22
2023-01-08T09:25:42.849Z,22
2023-01-08T09:26:59.462Z,16
2023-01-08T09:28:15.228Z,16
2023-01-08T09:29:31.405Z,16
2023-01-08T09:30:48.043Z,16
2023-01-08T09:32:03.783Z,16
2023-01-08T09:33:20.408Z,16
2023-01-08T09:34:36.158Z,22
2023-01-08T09:35:52.790Z,22
2023-01-08T09:37:08.975Z,22
2023-01-08T09:38:25.163Z,16
2023-01-08T09:39:40.914Z,22
2023-01-08T09:40:57.102Z,16
2023-01-08T09:42:13.289Z,22
2023-01-08T09:43:28.925Z,28
2023-01-08T09:44:45.121Z,28
2023-01-08T09:46:01.301Z,28
2023-01-08T09:47:17.477Z,22
2023-01-08T09:48:33.675Z,22
2023-01-08T09:49:49.683Z,28
2023-01-08T09:51:06.054Z,22
2023-01-08T09:52:22.234Z,22
2023-01-08T09:53:38.416Z,16
2023-01-08T09:54:54.607Z,16
2023-01-08T09:56:10.793Z,16
2023-01-08T09:57:26.806Z,16
2023-01-08T09:58:43.169Z,16
2023-01-08T09:59:58.191Z,16
2023-01-08T10:01:14.562Z,11
2023-01-08T10:02:30.761Z,11
2023-01-08T10:03:46.945Z,11
2023-01-08T10:05:02.940Z,16
2023-01-08T10:06:19.142Z,22
2023-01-08T10:07:35.493Z,22
2023-01-08T10:08:51.511Z,22
2023-01-08T10:10:07.879Z,28
2023-01-08T10:11:24.056Z,28
2023-01-08T10:12:40.067Z,33
2023-01-08T10:13:56.431Z,45
2023-01-08T10:15:12.618Z,45
2023-01-08T10:16:27.826Z,45
2023-01-08T10:17:43.838Z,39
2023-01-08T10:19:00.215Z,33
2023-01-08T10:20:16.214Z,28
2023-01-08T10:21:32.580Z,22
2023-01-08T10:22:48.581Z,16
2023-01-08T10:24:04.959Z,11
2023-01-08T10:25:21.136Z,11
2023-01-08T10:26:37.324Z,11
2023-01-08T10:27:53.521Z,5
2023-01-08T10:29:09.704Z,5
2023-01-08T10:30:25.888Z,11
2023-01-08T10:31:42.082Z,5
2023-01-08T10:32:57.087Z,5
2023-01-08T10:34:13.476Z,11
2023-01-08T10:35:29.471Z,11
2023-01-08T10:36:45.852Z,16
2023-01-08T10:38:02.039Z,11
2023-01-08T10:39:18.025Z,5
2023-01-08T10:40:34.399Z,11
2023-01-08T10:41:50.599Z,11
2023-01-08T10:43:06.780Z,11
2023-01-08T10:44:22.780Z,11
2023-01-08T10:45:38.964Z,16
2023-01-08T10:46:55.348Z,22
2023-01-08T10:48:11.536Z,22
2023-01-08T10:49:26.734Z,22
2023-01-08T10:50:42.936Z,39
2023-01-08T10:51:58.911Z,45
2023-01-08T10:53:15.289Z,45
2023-01-08T10:54:31.492Z,45
2023-01-08T10:55:47.475Z,45
2023-01-08T10:57:03.858Z,45
2023-01-08T10:58:20.044Z,39
2023-01-08T10:59:36.245Z,45
2023-01-08T11:00:52.231Z,39
2023-01-08T11:02:08.607Z,33
2023-01-08T11:03:24.788Z,33
2023-01-08T11:04:40.978Z,33
2023-01-08T11:05:56.182Z,33
2023-01-08T11:07:12.368Z,33
2023-01-08T11:08:28.555Z,33
2023-01-08T11:09:44.546Z,33
2023-01-08T11:11:00.945Z,28
2023-01-08T11:12:17.123Z,22
2023-01-08T11:13:33.123Z,28
2023-01-08T11:14:49.510Z,28
2023-01-08T11:16:05.688Z,33
2023-01-08T11:17:21.683Z,39
2023-01-08T11:18:38.064Z,50
2023-01-08T11:19:54.251Z,61
2023-01-08T11:21:10.444Z,73
2023-01-08T11:22:25.643Z,67
2023-01-08T11:23:41.626Z,45
2023-01-08T11:24:58.005Z,28
2023-01-08T11:26:14.013Z,22
2023-01-08T11:27:30.379Z,22
2023-01-08T11:28:46.377Z,22
2023-01-08T11:30:02.768Z,22
2023-01-08T11:31:18.749Z,22
2023-01-08T11:32:35.138Z,22
2023-01-08T11:33:51.319Z,22
2023-01-08T11:35:07.320Z,22
2023-01-08T11:36:23.710Z,22
2023-01-08T11:37:39.895Z,16
2023-01-08T11:38:54.898Z,16
2023-01-08T11:40:11.280Z,16
2023-01-08T11:41:27.270Z,16
2023-01-08T11:42:43.647Z,22
2023-01-08T11:43:59.644Z,22
2023-01-08T11:45:16.042Z,22
2023-01-08T11:46:32.016Z,28
2023-01-08T11:47:48.395Z,28
2023-01-08T11:49:04.594Z,28
2023-01-08T11:50:20.775Z,28
2023-01-08T11:51:36.966Z,22
2023-01-08T11:52:53.144Z,22
2023-01-08T11:54:09.351Z,22
2023-01-08T11:55:24.552Z,22
2023-01-08T11:56:40.741Z,28
2023-01-08T11:57:56.716Z,33
2023-01-08T11:59:13.122Z,39
2023-01-08T12:00:29.307Z,45
2023-01-08T12:01:45.482Z,50
2023-01-08T12:03:01.681Z,45
2023-01-08T12:04:17.872Z,39
2023-01-08T12:05:34.066Z,39
2023-01-08T12:06:50.041Z,45
2023-01-08T12:08:06.215Z,45
2023-01-08T12:09:22.614Z,45
2023-01-08T12:10:38.806Z,50
2023-01-08T12:11:54.018Z,50
2023-01-08T12:13:10.005Z,45
2023-01-08T12:14:26.187Z,45
2023-01-08T12:15:42.591Z,39
2023-01-08T12:16:58.551Z,33
2023-01-08T12:18:14.963Z,33
2023-01-08T12:19:30.947Z,45
2023-01-08T12:20:47.345Z,56
2023-01-08T12:22:03.320Z,50
2023-01-08T12:23:19.508Z,50
2023-01-08T12:24:35.904Z,50
2023-01-08T12:25:52.104Z,50
2023-01-08T12:27:08.276Z,45
2023-01-08T12:28:23.277Z,45
2023-01-08T12:29:39.473Z,50
2023-01-08T12:30:55.873Z,50
2023-01-08T12:32:11.849Z,56
2023-01-08T12:33:28.027Z,56
2023-01-08T12:34:44.430Z,56
2023-01-08T12:36:00.628Z,67
2023-01-08T12:37:16.817Z,73
2023-01-08T12:38:33.006Z,73
2023-01-08T12:39:49.184Z,67
2023-01-08T12:41:05.383Z,56
2023-01-08T12:42:21.341Z,45
2023-01-08T12:43:37.749Z,39
2023-01-08T12:44:52.737Z,39
2023-01-08T12:46:09.164Z,33
2023-01-08T12:47:25.130Z,33
2023-01-08T12:48:41.525Z,28
2023-01-08T12:49:57.707Z,28
2023-01-08T12:51:13.688Z,28
2023-01-08T12:52:30.100Z,22
2023-01-08T12:53:46.273Z,22
2023-01-08T12:55:02.480Z,22
2023-01-08T12:56:18.660Z,28
2023-01-08T12:57:34.635Z,22
2023-01-08T12:58:51.036Z,16
2023-01-08T13:00:07.007Z,16
2023-01-08T13:01:22.442Z,11
2023-01-08T13:02:38.623Z,11
2023-01-08T13:03:54.809Z,11
2023-01-08T13:05:10.992Z,11
2023-01-08T13:06:27.197Z,16
2023-01-08T13:07:43.373Z,11
2023-01-08T13:08:59.559Z,11
2023-01-08T13:10:15.760Z,11
2023-01-08T13:11:31.946Z,16
2023-01-08T13:12:47.908Z,16
2023-01-08T13:14:04.327Z,16
2023-01-08T13:15:20.505Z,16
2023-01-08T13:16:36.476Z,16
2023-01-08T13:17:51.914Z,16
2023-01-08T13:19:08.087Z,16
2023-01-08T13:20:24.068Z,16
2023-01-08T13:21:40.482Z,16
2023-01-08T13:22:56.444Z,16
2023-01-08T13:24:12.859Z,11
2023-01-08T13:25:29.038Z,11
2023-01-08T13:26:45.226Z,11
2023-01-08T13:28:01.189Z,11
2023-01-08T13:29:17.600Z,11
2023-01-08T13:30:33.567Z,11
2023-01-08T13:31:49.984Z,11
2023-01-08T13:33:06.171Z,11
2023-01-08T13:34:21.378Z,11
2023-01-08T13:35:37.565Z,11
2023-01-08T13:36:53.756Z,11
2023-01-08T13:38:09.949Z,11
2023-01-08T13:39:26.125Z,11
2023-01-08T13:40:41.122Z,11
2023-01-08T13:41:57.531Z,11
2023-01-08T13:43:13.724Z,11
2023-01-08T13:44:29.907Z,5
2023-01-08T13:45:45.867Z,5
2023-01-08T13:47:02.297Z,5
2023-01-08T13:48:18.479Z,5
2023-01-08T13:49:34.661Z,5
2023-01-08T13:50:50.631Z,5
2023-01-08T13:52:06.810Z,5
2023-01-08T13:53:23.239Z,5
2023-01-08T13:54:39.422Z,5
2023-01-08T13:55:55.621Z,5
2023-01-08T13:57:10.811Z,5
2023-01-08T13:58:27.007Z,5
2023-01-08T13:59:43.202Z,5
2023-01-08T14:00:59.387Z,5
2023-01-08T14:02:15.586Z,5
2023-01-08T14:03:31.770Z,5
2023-01-08T14:04:47.950Z,5
2023-01-08T14:06:03.909Z,5
2023-01-08T14:07:20.089Z,5
2023-01-08T14:08:36.280Z,5
2023-01-08T14:09:52.483Z,5
2023-01-08T14:11:08.897Z,5
2023-01-08T14:12:25.087Z,5
2023-01-08T14:13:40.290Z,5
2023-01-08T14:14:56.482Z,5
2023-01-08T14:16:12.432Z,5
2023-01-08T14:17:28.858Z,5
2023-01-08T14:18:45.062Z,5
2023-01-08T14:20:01.236Z,5
2023-01-08T14:21:17.421Z,5
2023-01-08T14:22:33.389Z,5
2023-01-08T14:23:49.571Z,5
2023-01-08T14:25:05.996Z,5
2023-01-08T14:26:22.194Z,5
2023-01-08T14:27:38.138Z,5
2023-01-08T14:28:54.566Z,0
2023-01-08T14:30:09.530Z,0
2023-01-08T14:31:25.714Z,0
2023-01-08T14:32:41.908Z,0
2023-01-08T14:33:58.347Z,0
2023-01-08T14:35:14.519Z,0
2023-01-08T14:36:30.484Z,0
2023-01-08T14:37:46.908Z,0
2023-01-08T14:39:02.863Z,0
2023-01-08T14:40:19.294Z,0
2023-01-08T14:41:35.471Z,0
2023-01-08T14:42:51.659Z,0
2023-01-08T14:44:07.857Z,0
2023-01-08T14:45:23.805Z,0
2023-01-08T14:46:39.255Z,0
2023-01-08T14:47:55.430Z,0
2023-01-08T14:49:11.635Z,0
2023-01-08T14:50:27.809Z,0
2023-01-08T14:51:44.005Z,0
2023-01-08T14:53:00.193Z,0
2023-01-08T14:54:16.385Z,0
2023-01-08T14:55:32.573Z,0
2023-01-08T14:56:48.754Z,0
2023-01-08T14:58:04.952Z,0
2023-01-08T14:59:20.885Z,0
2023-01-08T15:00:37.333Z,0
2023-01-08T15:01:53.524Z,0
2023-01-08T15:03:08.717Z,0
2023-01-08T15:04:24.909Z,0
2023-01-08T15:05:40.858Z,0
2023-01-08T15:06:57.040Z,0
2023-01-08T15:08:13.470Z,0
2023-01-08T15:09:29.417Z,0
2023-01-08T15:10:45.601Z,0
2023-01-08T15:12:01.790Z,0
2023-01-08T15:13:17.997Z,0
2023-01-08T15:14:34.175Z,0
2023-01-08T15:15:50.614Z,0
2023-01-08T15:17:06.548Z,0
2023-01-08T15:18:22.740Z,0
2023-01-08T15:19:38.210Z,0
2023-01-08T15:20:54.386Z,0
2023-01-08T15:22:10.323Z,0
2023-01-08T15:23:26.520Z,0
2023-01-08T15:24:42.706Z,0
2023-01-08T15:25:58.899Z,0
2023-01-08T15:27:15.339Z,0
2023-01-08T15:28:31.522Z,0
2023-01-08T15:29:47.723Z,0
2023-01-08T15:31:03.914Z,0
2023-01-08T15:32:19.846Z,0
2023-01-08T15:33:36.286Z,0
2023-01-08T15:34:52.467Z,0
2023-01-08T15:36:07.414Z,0
2023-01-08T15:37:23.870Z,0
2023-01-08T15:38:40.048Z,0
2023-01-08T15:39:56.250Z,0
2023-01-08T15:41:12.429Z,0
2023-01-08T15:42:28.621Z,0
2023-01-08T15:43:44.812Z,0
2023-01-08T15:45:00.993Z,0
2023-01-08T15:46:17.198Z,0
2023-01-08T15:47:33.371Z,0
2023-01-08T15:48:49.305Z,0
2023-01-08T15:50:05.750Z,0
2023-01-08T15:51:21.957Z,0
2023-01-08T15:52:37.160Z,0
2023-01-08T15:53:53.336Z,0
2023-01-08T15:55:09.277Z,0
2023-01-08T15:56:25.721Z,0
2023-01-08T15:57:41.904Z,0
2023-01-08T15:58:58.103Z,0
2023-01-08T16:00:14.278Z,0
2023-01-08T16:01:30.220Z,0
2023-01-08T16:02:46.411Z,0
2023-01-08T16:04:02.859Z,0
2023-01-08T16:05:19.050Z,0
2023-01-08T16:06:35.236Z,0
2023-01-08T16:07:51.414Z,0
2023-01-08T16:09:06.638Z,0
2023-01-08T16:10:22.808Z,0
2023-01-08T16:11:39.014Z,0
2023-01-08T16:12:55.189Z,0
2023-01-08T16:14:11.122Z,0
2023-01-08T16:15:27.302Z,0
2023-01-08T16:16:43.753Z,0
2023-01-08T16:17:59.698Z,0
2023-01-08T16:19:16.138Z,0
2023-01-08T16:20:32.334Z,0
2023-01-08T16:21:48.508Z,0
2023-01-08T16:23:04.704Z,0
2023-01-08T16:24:20.889Z,0
2023-01-08T16:25:36.104Z,0
2023-01-08T16:26:52.027Z,0
2023-01-08T16:28:08.482Z,0
2023-01-08T16:29:24.676Z,0
2023-01-08T16:30:40.856Z,0
2023-01-08T16:31:57.051Z,0
2023-01-08T16:33:12.963Z,0
2023-01-08T16:34:29.435Z,0
2023-01-08T16:35:45.607Z,0
2023-01-08T16:37:01.533Z,0
2023-01-08T16:38:18.003Z,0
2023-01-08T16:39:34.175Z,0
2023-01-08T16:40:50.369Z,0
2023-01-08T16:42:05.584Z,0
2023-01-08T16:43:21.775Z,0
2023-01-08T16:44:37.957Z,0
2023-01-08T16:45:54.147Z,0
2023-01-08T16:47:10.341Z,0
2023-01-08T16:48:26.254Z,0
2023-01-08T16:49:42.713Z,0
2023-01-08T16:50:58.893Z,0
2023-01-08T16:52:15.085Z,0
2023-01-08T16:53:31.281Z,0
2023-01-08T16:54:47.468Z,0
2023-01-08T16:56:03.382Z,0
2023-01-08T16:57:19.839Z,0
2023-01-08T16:58:34.789Z,0
2023-01-08T16:59:51.235Z,0
2023-01-08T17:01:07.157Z,0
2023-01-08T17:02:23.615Z,0
2023-01-08T17:03:39.811Z,0
2023-01-08T17:04:55.729Z,0
2023-01-08T17:06:11.920Z,0
2023-01-08T17:07:28.367Z,0
2023-01-08T17:08:44.571Z,0
2023-01-08T17:10:00.761Z,0
2023-01-08T17:11:16.679Z,0
2023-01-08T17:12:33.132Z,0
2023-01-08T17:13:49.321Z,0
2023-01-08T17:15:04.536Z,0
2023-01-08T17:16:20.709Z,0
2023-01-08T17:17:36.633Z,0
2023-01-08T17:18:52.812Z,0
2023-01-08T17:20:09.285Z,0
2023-01-08T17:21:25.468Z,0
2023-01-08T17:22:41.664Z,0
2023-01-08T17:23:57.855Z,0
2023-01-08T17:25:14.032Z,0
2023-01-08T17:26:29.960Z,0
2023-01-08T17:27:46.426Z,0
2023-01-08T17:29:02.334Z,0
2023-01-08T17:30:18.796Z,0
2023-01-08T17:31:34.009Z,0
2023-01-08T17:32:49.915Z,0
2023-01-08T17:34:06.095Z,0
2023-01-08T17:35:22.563Z,0
2023-01-08T17:36:38.474Z,0
2023-01-08T17:37:54.664Z,0
2023-01-08T17:39:11.142Z,0
2023-01-08T17:40:27.033Z,0
2023-01-08T17:41:43.505Z,0
2023-01-08T17:42:59.422Z,0
2023-01-08T17:44:15.886Z,0
2023-01-08T17:45:32.077Z,0
2023-01-08T17:46:48.276Z,0
2023-01-08T17:48:03.477Z,0
2023-01-08T17:49:19.656Z,0
2023-01-08T17:50:35.846Z,0
2023-01-08T17:51:52.041Z,0
2023-01-08T17:53:08.233Z,0
2023-01-08T17:54:24.413Z,0
2023-01-08T17:55:39.348Z,0
2023-01-08T17:56:55.531Z,0
2023-01-08T17:58:12.011Z,0
2023-01-08T17:59:28.197Z,0
2023-01-08T18:00:44.387Z,0
2023-01-08T18:02:00.569Z,0
2023-01-08T18:03:16.482Z,0
2023-01-08T18:04:32.954Z,0
2023-01-08T18:05:49.136Z,0
2023-01-08T18:07:05.329Z,0
2023-01-08T18:08:21.523Z,0
2023-01-08T18:09:37.720Z,0
2023-01-08T18:10:53.897Z,0
2023-01-08T18:12:08.825Z,0
2023-01-08T18:13:25.295Z,0
2023-01-08T18:14:41.483Z,0
2023-01-08T18:15:57.676Z,0
2023-01-08T18:17:13.870Z,0
2023-01-08T18:18:30.052Z,0
2023-01-08T18:19:46.233Z,0
2023-01-08T18:21:02.131Z,0
2023-01-08T18:22:18.611Z,0
2023-01-08T18:23:34.808Z,0
2023-01-08T18:24:51.004Z,0
2023-01-08T18:26:06.895Z,0
2023-01-08T18:27:23.074Z,0
2023-01-08T18:28:38.581Z,0
2023-01-08T18:29:54.776Z,0
2023-01-08T18:31:10.967Z,0
2023-01-08T18:32:26.846Z,0
2023-01-08T18:33:43.052Z,0
2023-01-08T18:34:59.519Z,0